• Join FlightAware (Why Join?)
  • Login
  • US Flag 
02:18PM EST


 

Airport Tracker/Info


-or-


 

Live Flight TrackerFlight Track Log ✈ SEJ1022 ✈ 29-Aug-2014 ✈ VOTP / TIR - VOHS / HYD

Flight Track Log - Related Links

Times and Time Zones

All times are in EDT time to prevent confusion due to time zone crossing. See the SEJ1022 flight status page for this flight to view local times or setup timezone preferences in your user account.

Time Position Orientation Groundspeed Altitude Reporting Facility
EDT Latitude Longitude Course Direction KTS MPH feet Rate Location/Type
07:54AM 14.0498 79.4170 344° North  Level Estimated
07:55AM 14.1194 79.3959 344° North  Level Estimated
07:56AM 14.1890 79.3748 344° North  Level Estimated
07:57AM 14.2586 79.3537 344° North  Level Estimated
07:58AM 14.3282 79.3325 344° North  Level Estimated
07:59AM 14.3979 79.3114 344° North  Level Estimated
08:00AM 14.4675 79.2902 344° North  Level Estimated
08:01AM 14.5371 79.2691 344° North  Level Estimated
08:02AM 14.6067 79.2479 344° North  Level Estimated
08:03AM 14.6763 79.2267 344° North  Level Estimated
08:04AM 14.7459 79.2055 344° North  Level Estimated
08:05AM 14.8155 79.1842 344° North  Level Estimated
08:06AM 14.8851 79.1630 344° North  Level Estimated
08:07AM 14.9547 79.1417 344° North  Level Estimated
08:08AM 15.0243 79.1205 344° North  Level Estimated
08:09AM 15.0939 79.0992 344° North  Level Estimated
08:10AM 15.1635 79.0779 344° North  Level Estimated
08:11AM 15.2331 79.0566 344° North  Level Estimated
08:12AM 15.3027 79.0352 344° North  Level Estimated
08:13AM 15.3723 79.0139 344° North  Level Estimated
08:14AM 15.4419 78.9926 344° North  Level Estimated
08:15AM 15.5114 78.9712 344° North  Level Estimated
08:16AM 15.5810 78.9498 344° North  Level Estimated
08:17AM 15.6506 78.9284 344° North  Level Estimated
08:18AM 15.7202 78.9070 344° North  Level Estimated
08:19AM 15.7898 78.8856 343° North  Level Estimated
08:20AM 15.8593 78.8642 343° North  Level Estimated
08:21AM 15.9289 78.8427 343° North  Level Estimated
08:22AM 15.9985 78.8212 343° North  Level Estimated
08:23AM 16.0846 78.7946 343° North  Level Estimated
08:24AM 16.1707 78.7680 343° North  Level Estimated
08:25AM 16.2568 78.7413 343° North  Level Estimated
08:26AM 16.3430 78.7147 343° North  Level Estimated
08:27AM 16.4291 78.6880 343° North  Level Estimated
08:28AM 16.5152 78.6613 343° North  Level Estimated
08:29AM 16.6013 78.6345 343° North  Level Estimated
08:30AM 16.6874 78.6078 343° North  Level Estimated
08:31AM 16.7735 78.5810 343° North  Level Estimated
08:32AM 16.8596 78.5542 343° North  Level Estimated
08:33AM 16.9457 78.5273 343° North  Level Estimated
08:34AM 17.0318 78.5005 343° North  Level Estimated
08:35AM 17.1179 78.4736 343° North  Level Estimated
08:36AM 17.2040 78.4466 343° North  Level Estimated
08:37AM 17.2540 78.4310 343° North  Level Estimated
08:38AM 17.2540 78.4310 North  Level Estimated
08:39AM 17.2540 78.4310 North  Level Estimated
08:40AM 17.2540 78.4310 North  Level Estimated
08:41AM 17.2540 78.4310 North  Level Estimated
08:42AM 17.2540 78.4310 North  Level Estimated
08:43AM 17.2540 78.4310 North  Level Estimated
08:44AM 17.2540 78.4310 North  Level Estimated
08:45AM 17.2540 78.4310 North  Level Estimated
08:46AM 17.2540 78.4310 North  Level Estimated